Time;durP1;ratioP1;P1;durP2;ratioP2;P2;SDS_P1;SDS_P2;PMS_P1;PMS_P2;Temp;Humidity;BMP_temperature;BMP_pressure;BME280_temperature;BME280_humidity;BME280_pressure;Samples;Min_cycle;Max_cycle;Signal;HPM_P1;HPM_P2
2023/09/07 00:00:10;;;;;;;3.30;3.10;;;;;;;;;;5119742;28;20230;-64
2023/09/07 00:02:38;;;;;;;3.50;3.30;;;;;;;;;;5119615;28;20203;-64
2023/09/07 00:05:07;;;;;;;3.40;3.10;;;;;;;;;;5119748;28;20211;-64
2023/09/07 00:07:34;;;;;;;3.50;3.30;;;;;;;;;;5119667;28;20207;-64
2023/09/07 00:10:02;;;;;;;4.40;3.40;;;;;;;;;;5119759;28;20202;-64
2023/09/07 00:12:30;;;;;;;3.17;2.97;;;;;;;;;;5119684;28;20502;-64
2023/09/07 00:14:59;;;;;;;3.50;3.30;;;;;;;;;;5119539;28;20214;-65
2023/09/07 00:17:27;;;;;;;3.50;3.20;;;;;;;;;;5119253;28;20203;-64
2023/09/07 00:19:56;;;;;;;3.17;2.97;;;;;;;;;;5119010;28;20223;-65
2023/09/07 00:22:25;;;;;;;3.00;2.80;;;;;;;;;;5119017;28;20203;-64
2023/09/07 00:24:53;;;;;;;3.30;3.10;;;;;;;;;;5118977;28;20210;-64
2023/09/07 00:27:20;;;;;;;3.63;3.30;;;;;;;;;;5119162;28;20234;-64
2023/09/07 00:29:47;;;;;;;3.25;3.05;;;;;;;;;;5119025;28;20210;-64
2023/09/07 00:32:16;;;;;;;3.33;3.13;;;;;;;;;;5119148;28;20608;-64
2023/09/07 00:34:43;;;;;;;3.22;3.03;;;;;;;;;;5119202;28;20211;-64
2023/09/07 00:37:10;;;;;;;3.25;2.97;;;;;;;;;;5118723;28;20203;-65
2023/09/07 00:39:38;;;;;;;3.47;3.28;;;;;;;;;;5118650;28;20630;-64
2023/09/07 00:42:06;;;;;;;3.38;3.17;;;;;;;;;;5118957;28;20206;-65
2023/09/07 00:44:33;;;;;;;3.28;3.08;;;;;;;;;;5118612;28;20614;-64
2023/09/07 00:47:00;;;;;;;3.55;3.13;;;;;;;;;;5119090;28;20203;-64
2023/09/07 00:49:29;;;;;;;3.03;2.83;;;;;;;;;;5118938;28;20605;-64
2023/09/07 00:51:57;;;;;;;3.33;3.03;;;;;;;;;;5118678;28;20203;-64
2023/09/07 00:54:25;;;;;;;3.20;3.00;;;;;;;;;;5118322;28;20504;-64
2023/09/07 00:56:52;;;;;;;3.50;3.20;;;;;;;;;;5118727;28;20206;-64
2023/09/07 00:59:19;;;;;;;3.58;3.28;;;;;;;;;;5118499;28;20233;-64
2023/09/07 01:01:48;;;;;;;3.15;2.95;;;;;;;;;;5118598;28;20240;-64
2023/09/07 01:04:16;;;;;;;3.17;2.97;;;;;;;;;;5118478;28;20609;-64
2023/09/07 01:06:47;;;;;;;3.30;3.10;;;;;;;;;;5118341;28;20243;-64
2023/09/07 01:09:17;;;;;;;3.15;2.95;;;;;;;;;;5118811;28;20532;-64
2023/09/07 01:11:45;;;;;;;3.25;3.05;;;;;;;;;;5118260;28;20254;-64
2023/09/07 01:14:12;;;;;;;3.40;3.20;;;;;;;;;;5118419;28;20227;-64
2023/09/07 01:16:39;;;;;;;3.20;3.00;;;;;;;;;;5118461;28;20211;-64
2023/09/07 01:19:07;;;;;;;3.40;3.20;;;;;;;;;;5118282;28;20233;-64
2023/09/07 01:21:36;;;;;;;3.38;3.10;;;;;;;;;;5118053;28;20491;-64
2023/09/07 01:24:05;;;;;;;3.40;3.10;;;;;;;;;;5118222;28;20707;-64
2023/09/07 01:26:32;;;;;;;3.58;3.28;;;;;;;;;;5118612;28;20202;-64
2023/09/07 01:28:59;;;;;;;3.10;2.80;;;;;;;;;;5117426;28;20570;-64
2023/09/07 01:31:27;;;;;;;3.05;2.85;;;;;;;;;;5118233;28;20210;-64
2023/09/07 01:33:54;;;;;;;2.95;2.75;;;;;;;;;;5118005;28;20230;-64
2023/09/07 01:36:22;;;;;;;3.17;2.97;;;;;;;;;;5117980;28;20203;-64
2023/09/07 01:38:50;;;;;;;3.13;2.90;;;;;;;;;;5117891;28;20206;-64
2023/09/07 01:41:17;;;;;;;3.17;2.88;;;;;;;;;;5118294;28;20213;-64
2023/09/07 01:43:45;;;;;;;3.13;2.92;;;;;;;;;;5117947;28;20214;-64
2023/09/07 01:46:12;;;;;;;2.90;2.70;;;;;;;;;;5117473;28;20214;-64
2023/09/07 01:48:42;;;;;;;3.50;3.20;;;;;;;;;;5117738;28;20203;-64
2023/09/07 01:51:09;;;;;;;2.95;2.75;;;;;;;;;;5117765;28;20247;-64
2023/09/07 01:53:36;;;;;;;3.28;3.00;;;;;;;;;;5118058;28;20217;-64
2023/09/07 01:56:05;;;;;;;3.15;2.95;;;;;;;;;;5117940;28;20214;-64
2023/09/07 01:58:33;;;;;;;2.97;2.78;;;;;;;;;;5117807;28;20221;-64
2023/09/07 02:01:00;;;;;;;2.90;2.70;;;;;;;;;;5117489;28;20227;-64
2023/09/07 02:03:28;;;;;;;3.00;2.80;;;;;;;;;;5117881;28;20214;-64
2023/09/07 02:05:55;;;;;;;3.20;3.00;;;;;;;;;;5117660;28;20211;-64
2023/09/07 02:08:23;;;;;;;2.95;2.70;;;;;;;;;;5117903;28;20210;-64
2023/09/07 02:10:50;;;;;;;3.35;3.15;;;;;;;;;;5117527;28;20205;-64
2023/09/07 02:13:18;;;;;;;3.22;2.92;;;;;;;;;;5117573;28;20314;-64
2023/09/07 02:15:46;;;;;;;3.10;2.90;;;;;;;;;;5117682;28;20215;-65
2023/09/07 02:18:13;;;;;;;3.13;2.92;;;;;;;;;;5117658;28;20210;-64
2023/09/07 02:20:40;;;;;;;3.40;3.20;;;;;;;;;;5117583;28;20233;-64
2023/09/07 02:23:08;;;;;;;3.40;3.10;;;;;;;;;;5117172;28;20203;-64
2023/09/07 02:25:35;;;;;;;3.05;2.85;;;;;;;;;;5117339;28;20211;-64
2023/09/07 02:28:03;;;;;;;3.17;2.97;;;;;;;;;;5117606;28;20199;-64
2023/09/07 02:30:31;;;;;;;3.10;2.90;;;;;;;;;;5117393;28;20206;-64
2023/09/07 02:32:59;;;;;;;3.08;2.88;;;;;;;;;;5117726;28;20203;-64
2023/09/07 02:35:26;;;;;;;2.90;2.70;;;;;;;;;;5117182;28;20234;-64
2023/09/07 02:37:53;;;;;;;3.25;3.05;;;;;;;;;;5117209;28;20217;-64
2023/09/07 02:40:22;;;;;;;2.80;2.60;;;;;;;;;;5120948;28;20223;-65
2023/09/07 02:42:49;;;;;;;3.15;2.95;;;;;;;;;;5121465;28;20210;-64
2023/09/07 02:45:16;;;;;;;3.40;3.20;;;;;;;;;;5121125;28;20590;-64
2023/09/07 02:47:46;;;;;;;3.05;2.75;;;;;;;;;;5121118;28;20207;-64
2023/09/07 02:50:15;;;;;;;3.15;2.90;;;;;;;;;;5121342;28;20234;-64
2023/09/07 02:52:43;;;;;;;2.88;2.67;;;;;;;;;;5121082;28;20203;-64
2023/09/07 02:55:10;;;;;;;3.33;3.13;;;;;;;;;;5121129;28;20504;-64
2023/09/07 02:57:38;;;;;;;3.40;3.10;;;;;;;;;;5120811;28;20218;-64
2023/09/07 03:00:09;;;;;;;2.92;2.72;;;;;;;;;;5120801;28;20231;-64
2023/09/07 03:02:36;;;;;;;2.75;2.55;;;;;;;;;;5120911;28;20206;-65
2023/09/07 03:05:05;;;;;;;3.10;2.90;;;;;;;;;;5120636;28;20260;-64
2023/09/07 03:07:34;;;;;;;2.95;2.75;;;;;;;;;;5120845;28;20477;-64
2023/09/07 03:10:02;;;;;;;3.05;2.85;;;;;;;;;;5120331;28;20207;-64
2023/09/07 03:12:30;;;;;;;3.20;2.90;;;;;;;;;;5120391;28;20211;-64
2023/09/07 03:14:57;;;;;;;3.17;2.97;;;;;;;;;;5120445;28;20207;-64
2023/09/07 03:17:24;;;;;;;3.05;2.85;;;;;;;;;;5120036;28;20233;-64
2023/09/07 03:19:52;;;;;;;3.10;2.90;;;;;;;;;;5119989;28;20233;-64
2023/09/07 03:22:21;;;;;;;3.15;2.95;;;;;;;;;;5120188;28;20210;-64
2023/09/07 03:24:48;;;;;;;2.88;2.70;;;;;;;;;;5120427;28;20211;-64
2023/09/07 03:27:15;;;;;;;3.00;2.80;;;;;;;;;;5119965;28;20594;-64
2023/09/07 03:29:43;;;;;;;3.03;2.83;;;;;;;;;;5119609;28;20609;-64
2023/09/07 03:32:10;;;;;;;2.97;2.78;;;;;;;;;;5120366;28;20207;-64
2023/09/07 03:34:38;;;;;;;3.13;2.92;;;;;;;;;;5119793;28;20283;-64
2023/09/07 03:37:06;;;;;;;3.10;2.90;;;;;;;;;;5120081;28;20210;-64
2023/09/07 03:39:34;;;;;;;2.92;2.72;;;;;;;;;;5119728;28;20286;-64
2023/09/07 03:42:02;;;;;;;3.05;2.85;;;;;;;;;;5120124;28;20606;-64
2023/09/07 03:44:29;;;;;;;3.05;2.72;;;;;;;;;;5119798;28;20203;-64
2023/09/07 03:46:57;;;;;;;3.10;2.90;;;;;;;;;;5119939;28;20565;-64
2023/09/07 03:49:24;;;;;;;2.80;2.60;;;;;;;;;;5119789;28;20272;-64
2023/09/07 03:51:51;;;;;;;3.00;2.80;;;;;;;;;;5119136;28;20202;-64
2023/09/07 03:54:18;;;;;;;2.60;2.40;;;;;;;;;;5119784;28;20203;-64
2023/09/07 03:56:47;;;;;;;2.75;2.55;;;;;;;;;;5119343;28;20203;-64
2023/09/07 03:59:14;;;;;;;2.80;2.60;;;;;;;;;;5119527;28;20214;-64
2023/09/07 04:01:42;;;;;;;3.10;2.90;;;;;;;;;;5118978;28;20614;-65
2023/09/07 04:04:09;;;;;;;3.15;2.95;;;;;;;;;;5118920;28;20203;-64
2023/09/07 04:06:36;;;;;;;2.72;2.53;;;;;;;;;;5119172;28;20280;-64
2023/09/07 04:09:04;;;;;;;3.00;2.80;;;;;;;;;;5118972;28;20214;-64
2023/09/07 04:11:31;;;;;;;2.88;2.67;;;;;;;;;;5119879;28;20199;-64
2023/09/07 04:14:00;;;;;;;3.10;2.90;;;;;;;;;;5118725;28;20231;-65
2023/09/07 04:16:27;;;;;;;3.10;2.90;;;;;;;;;;5118977;28;20214;-64
2023/09/07 04:18:55;;;;;;;3.20;3.00;;;;;;;;;;5118588;28;20211;-64
2023/09/07 04:21:22;;;;;;;2.80;2.60;;;;;;;;;;5118371;28;20296;-64
2023/09/07 04:23:49;;;;;;;2.97;2.78;;;;;;;;;;5118696;28;20203;-64
2023/09/07 04:26:16;;;;;;;3.40;3.10;;;;;;;;;;5117511;28;20210;-64
2023/09/07 04:28:44;;;;;;;2.92;2.72;;;;;;;;;;5118256;28;20214;-64
2023/09/07 04:31:13;;;;;;;3.05;2.75;;;;;;;;;;5117847;28;20199;-64
2023/09/07 04:33:40;;;;;;;3.40;3.10;;;;;;;;;;5118531;28;20210;-64
2023/09/07 04:36:11;;;;;;;3.28;3.00;;;;;;;;;;5117416;28;20215;-65
2023/09/07 04:38:38;;;;;;;3.10;2.90;;;;;;;;;;5117250;28;20210;-64
2023/09/07 04:41:09;;;;;;;2.90;2.70;;;;;;;;;;5116937;28;20227;-64
2023/09/07 04:43:37;;;;;;;2.85;2.65;;;;;;;;;;5117109;28;20218;-64
2023/09/07 04:46:04;;;;;;;2.92;2.72;;;;;;;;;;5117144;28;20597;-64
2023/09/07 04:48:34;;;;;;;3.25;2.95;;;;;;;;;;5116118;28;20203;-64
2023/09/07 04:51:01;;;;;;;3.33;2.88;;;;;;;;;;5117084;28;20260;-64
2023/09/07 04:53:30;;;;;;;3.20;3.00;;;;;;;;;;5117055;28;20203;-64
2023/09/07 04:55:58;;;;;;;3.20;2.90;;;;;;;;;;5116439;28;20206;-64
2023/09/07 04:58:25;;;;;;;2.95;2.75;;;;;;;;;;5116705;28;20473;-64
2023/09/07 05:00:53;;;;;;;3.05;2.85;;;;;;;;;;5115606;28;20231;-64
2023/09/07 05:03:20;;;;;;;2.78;2.58;;;;;;;;;;5116220;28;20214;-64
2023/09/07 05:05:52;;;;;;;3.00;2.80;;;;;;;;;;5115780;28;20199;-64
2023/09/07 05:08:21;;;;;;;3.15;2.95;;;;;;;;;;5114717;28;20515;-64
2023/09/07 05:10:49;;;;;;;2.95;2.75;;;;;;;;;;5115263;28;20245;-64
2023/09/07 05:13:16;;;;;;;3.00;2.80;;;;;;;;;;5115355;28;20268;-64
2023/09/07 05:15:49;;;;;;;2.83;2.63;;;;;;;;;;5114790;28;20203;-64
2023/09/07 05:18:16;;;;;;;3.13;2.92;;;;;;;;;;5115651;28;20272;-64
2023/09/07 05:20:44;;;;;;;3.30;3.00;;;;;;;;;;5114650;28;20524;-64
2023/09/07 05:23:15;;;;;;;3.03;2.83;;;;;;;;;;5115792;28;20203;-64
2023/09/07 05:25:46;;;;;;;2.75;2.55;;;;;;;;;;5115989;28;20202;-64
2023/09/07 05:28:14;;;;;;;2.90;2.70;;;;;;;;;;5115366;28;20592;-64
2023/09/07 05:30:42;;;;;;;2.85;2.65;;;;;;;;;;5115129;28;20206;-64
2023/09/07 05:33:09;;;;;;;2.70;2.50;;;;;;;;;;5115528;28;20214;-65
2023/09/07 05:35:37;;;;;;;2.78;2.58;;;;;;;;;;5115474;28;20535;-64
2023/09/07 05:38:04;;;;;;;3.00;2.80;;;;;;;;;;5114589;28;20202;-64
2023/09/07 05:40:35;;;;;;;2.90;2.70;;;;;;;;;;5113937;28;20238;-64
2023/09/07 05:43:03;;;;;;;3.00;2.60;;;;;;;;;;5114028;28;20249;-64
2023/09/07 05:45:31;;;;;;;3.15;2.95;;;;;;;;;;5112537;28;20485;-64
2023/09/07 05:47:59;;;;;;;3.17;2.97;;;;;;;;;;5112368;28;20937;-64
2023/09/07 05:50:26;;;;;;;3.10;2.90;;;;;;;;;;5112963;28;20476;-64
2023/09/07 05:52:53;;;;;;;2.70;2.50;;;;;;;;;;5112154;28;20203;-64
2023/09/07 05:55:21;;;;;;;3.20;3.00;;;;;;;;;;5112740;28;20213;-64
2023/09/07 05:57:50;;;;;;;3.00;2.80;;;;;;;;;;5112784;28;20494;-64
2023/09/07 06:00:17;;;;;;;3.00;2.70;;;;;;;;;;5111802;28;20224;-64
2023/09/07 06:02:45;;;;;;;2.95;2.75;;;;;;;;;;5112867;28;20657;-64
2023/09/07 06:05:13;;;;;;;2.90;2.70;;;;;;;;;;5113830;28;20485;-64
2023/09/07 06:07:40;;;;;;;3.30;3.00;;;;;;;;;;5113547;28;20202;-64
2023/09/07 06:10:08;;;;;;;3.03;2.83;;;;;;;;;;5113207;28;20203;-64
2023/09/07 06:12:35;;;;;;;3.00;2.80;;;;;;;;;;5113076;28;20586;-64
2023/09/07 06:15:04;;;;;;;3.20;3.00;;;;;;;;;;5117473;28;20203;-64
2023/09/07 06:17:32;;;;;;;3.00;2.80;;;;;;;;;;5119634;28;20685;-64
2023/09/07 06:19:59;;;;;;;3.10;2.90;;;;;;;;;;5119434;28;20195;-64
2023/09/07 06:22:27;;;;;;;3.28;3.08;;;;;;;;;;5118696;28;20516;-64
2023/09/07 06:24:54;;;;;;;3.55;3.30;;;;;;;;;;5118919;28;20217;-64
2023/09/07 06:27:21;;;;;;;3.05;2.85;;;;;;;;;;5119837;28;20202;-64
2023/09/07 06:29:48;;;;;;;3.50;3.20;;;;;;;;;;5119564;28;20229;-64
2023/09/07 06:32:18;;;;;;;3.15;2.95;;;;;;;;;;5119339;28;20206;-64
2023/09/07 06:34:46;;;;;;;3.03;2.83;;;;;;;;;;5119668;28;20225;-65
2023/09/07 06:37:13;;;;;;;3.13;2.92;;;;;;;;;;5118944;28;20203;-64
2023/09/07 06:39:42;;;;;;;3.13;2.92;;;;;;;;;;5119551;28;20205;-64
2023/09/07 06:42:10;;;;;;;3.30;3.10;;;;;;;;;;5118098;28;20283;-64
2023/09/07 06:44:37;;;;;;;3.20;3.00;;;;;;;;;;5119098;28;20291;-64
2023/09/07 06:47:05;;;;;;;3.30;3.10;;;;;;;;;;5118562;28;20214;-64
2023/09/07 06:49:34;;;;;;;3.30;3.10;;;;;;;;;;5119460;28;20207;-64
2023/09/07 06:52:02;;;;;;;3.13;2.83;;;;;;;;;;5119533;28;20199;-64
2023/09/07 06:54:30;;;;;;;3.10;2.90;;;;;;;;;;5118827;28;20203;-64
2023/09/07 06:56:57;;;;;;;3.38;3.17;;;;;;;;;;5119173;28;20218;-64
2023/09/07 06:59:24;;;;;;;3.20;3.00;;;;;;;;;;5118939;28;20218;-64
2023/09/07 07:01:52;;;;;;;3.42;3.22;;;;;;;;;;5119060;28;20614;-64
2023/09/07 07:04:19;;;;;;;3.28;3.08;;;;;;;;;;5117892;28;20214;-64
2023/09/07 07:06:48;;;;;;;3.10;2.90;;;;;;;;;;5118721;28;20203;-64
2023/09/07 07:09:15;;;;;;;3.45;3.25;;;;;;;;;;5118883;28;20202;-64
2023/09/07 07:11:42;;;;;;;3.10;2.90;;;;;;;;;;5117573;28;20209;-65
2023/09/07 07:14:11;;;;;;;3.40;3.10;;;;;;;;;;5117731;28;20231;-64
2023/09/07 07:16:38;;;;;;;3.20;3.00;;;;;;;;;;5118445;28;20238;-64
2023/09/07 07:19:05;;;;;;;3.58;3.17;;;;;;;;;;5118731;28;20752;-64
2023/09/07 07:21:33;;;;;;;3.30;3.10;;;;;;;;;;5118460;28;20218;-64
2023/09/07 07:24:01;;;;;;;3.20;3.00;;;;;;;;;;5117711;28;20277;-64
2023/09/07 07:26:29;;;;;;;3.20;3.00;;;;;;;;;;5117197;28;20491;-64
2023/09/07 07:28:57;;;;;;;3.20;3.00;;;;;;;;;;5117760;28;20643;-64
2023/09/07 07:31:24;;;;;;;3.35;3.15;;;;;;;;;;5117519;28;20199;-64
2023/09/07 07:33:52;;;;;;;3.40;3.10;;;;;;;;;;5117865;28;20202;-64
2023/09/07 07:36:19;;;;;;;3.10;2.90;;;;;;;;;;5117974;28;20194;-64
2023/09/07 07:38:46;;;;;;;3.20;3.00;;;;;;;;;;5118153;28;20206;-64
2023/09/07 07:41:15;;;;;;;3.42;3.22;;;;;;;;;;5117719;28;20622;-64
2023/09/07 07:43:43;;;;;;;3.30;3.10;;;;;;;;;;5117315;28;20203;-65
2023/09/07 07:46:10;;;;;;;3.35;3.15;;;;;;;;;;5117843;28;20207;-64
2023/09/07 07:48:37;;;;;;;3.08;2.88;;;;;;;;;;5117266;28;20206;-64
2023/09/07 07:51:05;;;;;;;3.25;3.05;;;;;;;;;;5117344;28;20582;-64
2023/09/07 07:53:32;;;;;;;3.40;3.20;;;;;;;;;;5117570;28;20305;-64
2023/09/07 07:56:00;;;;;;;3.42;3.13;;;;;;;;;;5117000;28;20225;-64
2023/09/07 07:58:29;;;;;;;3.10;2.90;;;;;;;;;;5117240;28;20307;-64
2023/09/07 08:00:58;;;;;;;3.22;3.03;;;;;;;;;;5116685;28;20210;-64
2023/09/07 08:03:25;;;;;;;3.10;2.90;;;;;;;;;;5117773;28;20478;-64
2023/09/07 08:05:53;;;;;;;3.10;2.90;;;;;;;;;;5117012;28;20203;-64
2023/09/07 08:08:20;;;;;;;2.97;2.78;;;;;;;;;;5117033;28;20199;-64
2023/09/07 08:10:48;;;;;;;3.00;2.80;;;;;;;;;;5116921;28;20530;-64
2023/09/07 08:13:15;;;;;;;2.80;2.60;;;;;;;;;;5117337;28;20250;-64
2023/09/07 08:15:44;;;;;;;3.28;3.08;;;;;;;;;;5116654;28;20214;-64
2023/09/07 08:18:11;;;;;;;2.90;2.70;;;;;;;;;;5117401;28;20206;-64
2023/09/07 08:20:40;;;;;;;3.20;3.00;;;;;;;;;;5116674;28;20221;-64
2023/09/07 08:23:10;;;;;;;3.28;3.08;;;;;;;;;;5116848;28;20251;-64
2023/09/07 08:25:39;;;;;;;2.85;2.65;;;;;;;;;;5116940;28;20301;-64
2023/09/07 08:28:06;;;;;;;2.80;2.60;;;;;;;;;;5116676;28;20204;-64
2023/09/07 08:30:35;;;;;;;2.88;2.67;;;;;;;;;;5116841;28;20206;-65
2023/09/07 08:33:05;;;;;;;3.30;3.10;;;;;;;;;;5116802;28;20230;-64
2023/09/07 08:35:35;;;;;;;3.00;2.80;;;;;;;;;;5116399;28;20214;-64
2023/09/07 08:38:05;;;;;;;3.10;2.90;;;;;;;;;;5116228;28;20275;-64
2023/09/07 08:40:34;;;;;;;2.90;2.70;;;;;;;;;;5116641;28;20203;-64
2023/09/07 08:43:05;;;;;;;3.15;2.95;;;;;;;;;;5116385;28;20223;-64
2023/09/07 08:45:36;;;;;;;3.25;3.05;;;;;;;;;;5115739;28;20207;-64
2023/09/07 08:48:05;;;;;;;3.10;2.90;;;;;;;;;;5115853;28;20669;-64
2023/09/07 08:50:32;;;;;;;2.90;2.70;;;;;;;;;;5116342;28;20240;-64
2023/09/07 08:53:03;;;;;;;2.90;2.70;;;;;;;;;;5116466;28;20206;-64
2023/09/07 08:55:31;;;;;;;3.30;3.10;;;;;;;;;;5115809;28;20519;-64
2023/09/07 08:57:58;;;;;;;3.03;2.83;;;;;;;;;;5115218;28;20211;-64
2023/09/07 09:00:25;;;;;;;2.92;2.72;;;;;;;;;;5115420;28;20199;-64
2023/09/07 09:02:54;;;;;;;2.90;2.70;;;;;;;;;;5116195;28;20245;-64
2023/09/07 09:05:24;;;;;;;3.08;2.88;;;;;;;;;;5116000;28;20211;-64
2023/09/07 09:08:04;;;;;;;2.45;2.25;;;;;;;;;;5115963;28;20289;-64
2023/09/07 09:10:31;;;;;;;2.88;2.67;;;;;;;;;;5115175;28;20581;-64
2023/09/07 09:12:59;;;;;;;3.00;2.80;;;;;;;;;;5116152;28;20266;-64
2023/09/07 09:15:27;;;;;;;2.95;2.70;;;;;;;;;;5115137;28;20306;-64
2023/09/07 09:17:54;;;;;;;3.00;2.80;;;;;;;;;;5114899;28;20285;-64
2023/09/07 09:20:24;;;;;;;3.10;2.90;;;;;;;;;;5114977;28;20214;-64
2023/09/07 09:22:56;;;;;;;3.50;3.30;;;;;;;;;;5114822;28;20223;-64
2023/09/07 09:25:23;;;;;;;3.53;3.28;;;;;;;;;;5115427;28;20207;-64
2023/09/07 09:27:51;;;;;;;3.30;3.10;;;;;;;;;;5114869;28;20203;-64
2023/09/07 09:30:18;;;;;;;3.53;3.33;;;;;;;;;;5115270;28;20643;-64
2023/09/07 09:32:45;;;;;;;3.67;3.38;;;;;;;;;;5115127;28;20492;-64
2023/09/07 09:35:13;;;;;;;3.30;3.10;;;;;;;;;;5114908;28;20643;-64
2023/09/07 09:37:49;;;;;;;3.42;3.22;;;;;;;;;;5115405;28;20207;-64
2023/09/07 09:40:17;;;;;;;3.28;3.00;;;;;;;;;;5114943;28;20260;-64
2023/09/07 09:42:45;;;;;;;3.30;3.10;;;;;;;;;;5115352;28;20258;-64
2023/09/07 09:45:13;;;;;;;3.53;3.22;;;;;;;;;;5114944;28;20214;-64
2023/09/07 09:47:42;;;;;;;3.15;2.95;;;;;;;;;;5114879;28;20202;-64
2023/09/07 09:50:10;;;;;;;2.97;2.78;;;;;;;;;;5114137;28;20203;-64
2023/09/07 09:52:38;;;;;;;3.33;3.10;;;;;;;;;;5114883;28;20290;-64
2023/09/07 09:55:12;;;;;;;3.10;2.90;;;;;;;;;;5115073;28;20203;-64
2023/09/07 09:57:40;;;;;;;3.08;2.88;;;;;;;;;;5114822;28;20298;-64
2023/09/07 10:00:19;;;;;;;3.67;3.38;;;;;;;;;;5112693;28;20233;-64
2023/09/07 10:02:49;;;;;;;3.30;3.10;;;;;;;;;;5115208;28;20222;-65
2023/09/07 10:05:16;;;;;;;3.25;3.05;;;;;;;;;;5114544;28;20264;-64
2023/09/07 10:07:44;;;;;;;3.40;3.20;;;;;;;;;;5114662;28;20225;-64
2023/09/07 10:10:14;;;;;;;3.20;3.00;;;;;;;;;;5114277;28;20271;-64
2023/09/07 10:12:42;;;;;;;3.22;3.03;;;;;;;;;;5111453;28;20199;-64
2023/09/07 10:15:21;;;;;;;3.38;3.17;;;;;;;;;;5093939;28;20214;-64
2023/09/07 10:17:50;;;;;;;3.30;3.10;;;;;;;;;;5094176;28;20204;-64
2023/09/07 10:20:18;;;;;;;3.45;3.25;;;;;;;;;;5094054;28;20204;-64
2023/09/07 10:22:46;;;;;;;3.40;3.13;;;;;;;;;;5092601;28;20314;-64
2023/09/07 10:25:22;;;;;;;3.53;3.22;;;;;;;;;;5093680;28;20239;-64
2023/09/07 10:27:49;;;;;;;3.47;3.10;;;;;;;;;;5093077;28;20218;-64
2023/09/07 10:30:19;;;;;;;3.33;3.13;;;;;;;;;;5093616;28;20203;-64
2023/09/07 10:32:47;;;;;;;3.42;3.22;;;;;;;;;;5093177;28;20235;-64
2023/09/07 10:35:16;;;;;;;3.50;3.30;;;;;;;;;;5093124;28;20202;-64
2023/09/07 10:37:44;;;;;;;3.10;2.90;;;;;;;;;;5093444;28;20668;-64
2023/09/07 10:40:13;;;;;;;3.58;3.35;;;;;;;;;;5093390;28;20211;-64
2023/09/07 10:42:42;;;;;;;3.30;3.10;;;;;;;;;;5093370;28;20487;-64
2023/09/07 10:45:15;;;;;;;3.03;2.83;;;;;;;;;;5092738;28;20208;-64
2023/09/07 10:47:43;;;;;;;3.47;3.28;;;;;;;;;;5093590;28;20212;-64
2023/09/07 10:50:12;;;;;;;3.45;3.15;;;;;;;;;;5093430;28;20643;-64
2023/09/07 10:52:40;;;;;;;3.92;3.63;;;;;;;;;;5093411;28;20204;-64
2023/09/07 10:55:10;;;;;;;3.42;3.22;;;;;;;;;;5094268;28;20223;-64
2023/09/07 10:57:48;;;;;;;3.38;3.17;;;;;;;;;;5093073;28;20215;-64
2023/09/07 11:00:16;;;;;;;3.80;3.50;;;;;;;;;;5094257;28;20599;-64
2023/09/07 11:02:44;;;;;;;3.28;3.08;;;;;;;;;;5096873;28;20285;-64
2023/09/07 11:05:11;;;;;;;3.50;3.30;;;;;;;;;;5096643;28;20203;-64
2023/09/07 11:07:40;;;;;;;3.53;3.22;;;;;;;;;;5097505;28;20196;-64
2023/09/07 11:10:09;;;;;;;3.45;3.25;;;;;;;;;;5096990;28;20302;-64
2023/09/07 11:12:39;;;;;;;3.65;3.42;;;;;;;;;;5098490;28;20211;-64
2023/09/07 11:15:10;;;;;;;3.67;3.38;;;;;;;;;;5116630;28;20207;-64
2023/09/07 11:17:39;;;;;;;3.58;3.30;;;;;;;;;;5118221;28;20215;-64
2023/09/07 11:20:09;;;;;;;3.70;3.40;;;;;;;;;;5117502;28;20234;-64
2023/09/07 11:22:38;;;;;;;3.47;3.20;;;;;;;;;;5116827;28;20618;-64
2023/09/07 11:25:06;;;;;;;3.40;3.20;;;;;;;;;;5118021;28;20195;-64
2023/09/07 11:27:33;;;;;;;3.40;3.20;;;;;;;;;;5116746;28;20195;-64
2023/09/07 11:30:07;;;;;;;3.67;3.38;;;;;;;;;;5117127;28;20213;-64
2023/09/07 11:32:36;;;;;;;3.70;3.40;;;;;;;;;;5116971;28;20281;-64
2023/09/07 11:35:07;;;;;;;3.40;3.20;;;;;;;;;;5116918;28;20225;-64
2023/09/07 11:37:34;;;;;;;3.42;3.22;;;;;;;;;;5116407;28;20202;-64
2023/09/07 11:40:04;;;;;;;3.47;3.20;;;;;;;;;;5116882;28;20203;-64
2023/09/07 11:42:31;;;;;;;3.30;3.10;;;;;;;;;;5115849;28;20342;-64
2023/09/07 11:44:58;;;;;;;3.60;3.30;;;;;;;;;;5116323;28;20229;-64
2023/09/07 11:47:26;;;;;;;3.30;3.00;;;;;;;;;;5116715;28;20203;-64
2023/09/07 11:49:55;;;;;;;3.50;3.20;;;;;;;;;;5117455;28;20214;-64
2023/09/07 11:52:22;;;;;;;3.65;3.35;;;;;;;;;;5117220;28;20199;-64
2023/09/07 11:54:49;;;;;;;3.50;3.17;;;;;;;;;;5117161;28;20517;-64
2023/09/07 11:57:17;;;;;;;3.53;3.22;;;;;;;;;;5116232;28;20206;-64
2023/09/07 11:59:44;;;;;;;3.60;3.40;;;;;;;;;;5117339;28;20308;-64
2023/09/07 12:02:14;;;;;;;3.90;3.60;;;;;;;;;;5116772;28;20206;-64
2023/09/07 12:04:42;;;;;;;3.35;3.15;;;;;;;;;;5116244;28;20536;-64
2023/09/07 12:07:11;;;;;;;3.60;3.30;;;;;;;;;;5115493;28;20211;-64
2023/09/07 12:09:38;;;;;;;3.80;3.50;;;;;;;;;;5115605;28;20222;-64
2023/09/07 12:12:06;;;;;;;3.50;3.30;;;;;;;;;;5115423;28;20578;-64
2023/09/07 12:14:33;;;;;;;3.60;3.30;;;;;;;;;;5116725;28;20227;-64
2023/09/07 12:17:01;;;;;;;3.50;3.20;;;;;;;;;;5116419;28;20657;-64
2023/09/07 12:19:28;;;;;;;3.00;2.80;;;;;;;;;;5116197;28;20638;-64
2023/09/07 12:21:55;;;;;;;3.47;3.20;;;;;;;;;;5116191;28;20206;-64
2023/09/07 12:24:24;;;;;;;3.92;3.63;;;;;;;;;;5116203;28;20241;-64
2023/09/07 12:26:53;;;;;;;3.72;3.50;;;;;;;;;;5115330;28;20527;-64
2023/09/07 12:29:21;;;;;;;3.78;3.47;;;;;;;;;;5115867;28;20203;-65
2023/09/07 12:31:49;;;;;;;3.25;3.05;;;;;;;;;;5115804;28;20230;-64
2023/09/07 12:34:16;;;;;;;3.45;3.25;;;;;;;;;;5114966;28;20202;-64
2023/09/07 12:36:43;;;;;;;3.22;3.03;;;;;;;;;;5115376;28;20491;-64
2023/09/07 12:39:12;;;;;;;3.60;3.30;;;;;;;;;;5115325;28;20221;-64
2023/09/07 12:41:41;;;;;;;3.55;3.25;;;;;;;;;;5115203;28;20234;-64
2023/09/07 12:44:09;;;;;;;3.60;3.40;;;;;;;;;;5114693;28;20285;-64
2023/09/07 12:46:37;;;;;;;3.65;3.35;;;;;;;;;;5115451;28;20711;-64
2023/09/07 12:49:04;;;;;;;3.38;3.17;;;;;;;;;;5115757;28;20575;-64
2023/09/07 12:51:32;;;;;;;3.30;3.10;;;;;;;;;;5115358;28;20242;-64
2023/09/07 12:53:59;;;;;;;3.65;3.35;;;;;;;;;;5115183;28;20227;-64
2023/09/07 12:56:27;;;;;;;3.60;3.30;;;;;;;;;;5116057;28;20195;-64
2023/09/07 12:58:59;;;;;;;3.58;3.28;;;;;;;;;;5114990;28;20199;-64
2023/09/07 13:01:26;;;;;;;3.42;3.20;;;;;;;;;;5114562;28;20203;-64
2023/09/07 13:03:53;;;;;;;3.17;2.97;;;;;;;;;;5114828;28;20256;-64
2023/09/07 13:06:21;;;;;;;3.40;3.10;;;;;;;;;;5115485;28;20210;-64
2023/09/07 13:08:48;;;;;;;3.45;3.15;;;;;;;;;;5114729;28;20225;-64
2023/09/07 13:11:16;;;;;;;3.10;2.90;;;;;;;;;;5115271;28;20203;-64
2023/09/07 13:13:43;;;;;;;3.30;3.10;;;;;;;;;;5115209;28;20230;-64
2023/09/07 13:16:13;;;;;;;3.40;3.20;;;;;;;;;;5115039;28;20595;-64
2023/09/07 13:18:40;;;;;;;3.00;2.78;;;;;;;;;;5114387;28;20198;-64
2023/09/07 13:21:07;;;;;;;3.25;3.05;;;;;;;;;;5114738;28;20549;-64
2023/09/07 13:23:35;;;;;;;3.28;2.97;;;;;;;;;;5112762;28;20250;-64
2023/09/07 13:26:02;;;;;;;3.30;3.00;;;;;;;;;;5113344;28;20206;-64
2023/09/07 13:28:30;;;;;;;3.10;2.90;;;;;;;;;;5113232;28;20199;-64
2023/09/07 13:30:57;;;;;;;3.10;2.90;;;;;;;;;;5113381;28;20209;-64
2023/09/07 13:33:26;;;;;;;3.38;3.08;;;;;;;;;;5114339;28;20195;-64
2023/09/07 13:35:53;;;;;;;3.10;2.90;;;;;;;;;;5113521;28;20471;-64
2023/09/07 13:38:20;;;;;;;3.33;3.08;;;;;;;;;;5114137;28;20206;-64
2023/09/07 13:40:48;;;;;;;3.10;2.90;;;;;;;;;;5114282;28;20233;-64
2023/09/07 13:43:15;;;;;;;3.00;2.80;;;;;;;;;;5113583;28;20219;-64
2023/09/07 13:45:44;;;;;;;3.00;2.80;;;;;;;;;;5113721;28;20203;-64
2023/09/07 13:48:11;;;;;;;3.10;2.90;;;;;;;;;;5114408;28;20198;-64
2023/09/07 13:50:40;;;;;;;3.22;2.97;;;;;;;;;;5114252;28;20665;-64
2023/09/07 13:53:07;;;;;;;3.10;2.90;;;;;;;;;;5114397;28;20199;-64
2023/09/07 13:55:35;;;;;;;2.83;2.63;;;;;;;;;;5113817;28;20214;-64
2023/09/07 13:58:02;;;;;;;3.35;3.15;;;;;;;;;;5114262;28;20231;-64
2023/09/07 14:00:29;;;;;;;2.90;2.70;;;;;;;;;;5114192;28;20806;-64
2023/09/07 14:02:57;;;;;;;2.80;2.60;;;;;;;;;;5113636;28;20203;-65
2023/09/07 14:05:24;;;;;;;2.75;2.55;;;;;;;;;;5113423;28;20199;-64
2023/09/07 14:07:53;;;;;;;2.70;2.50;;;;;;;;;;5114053;28;20500;-64
2023/09/07 14:10:20;;;;;;;2.75;2.55;;;;;;;;;;5113702;28;20199;-64
2023/09/07 14:12:48;;;;;;;3.03;2.80;;;;;;;;;;5110162;28;20227;-63
2023/09/07 14:15:15;;;;;;;2.90;2.70;;;;;;;;;;5094496;28;20238;-64
2023/09/07 14:17:43;;;;;;;3.63;3.33;;;;;;;;;;5093518;28;20196;-64
2023/09/07 14:20:11;;;;;;;3.45;3.25;;;;;;;;;;5093483;28;20261;-64
2023/09/07 14:22:38;;;;;;;3.97;3.67;;;;;;;;;;5093010;28;20208;-64
2023/09/07 14:25:08;;;;;;;3.90;3.60;;;;;;;;;;5092927;28;20220;-64
2023/09/07 14:27:35;;;;;;;3.97;3.67;;;;;;;;;;5093325;28;20204;-64
2023/09/07 14:30:03;;;;;;;3.95;3.58;;;;;;;;;;5093382;28;20199;-64
2023/09/07 14:32:30;;;;;;;3.58;3.33;;;;;;;;;;5092987;28;20614;-64
2023/09/07 14:34:58;;;;;;;3.90;3.60;;;;;;;;;;5094345;28;20206;-64
2023/09/07 14:37:25;;;;;;;4.07;3.50;;;;;;;;;;5097816;28;20203;-64
2023/09/07 14:39:57;;;;;;;4.32;3.88;;;;;;;;;;5097941;28;20239;-64
2023/09/07 14:42:26;;;;;;;4.15;3.80;;;;;;;;;;5096834;28;20202;-64
2023/09/07 14:44:54;;;;;;;4.45;4.05;;;;;;;;;;5096565;28;20223;-64
2023/09/07 14:47:25;;;;;;;3.88;3.60;;;;;;;;;;5097806;28;20204;-64